Time;durP1;ratioP1;P1;durP2;ratioP2;P2;SDS_P1;SDS_P2;PMS_P1;PMS_P2;Temp;Humidity;BMP_temperature;BMP_pressure;BME280_temperature;BME280_humidity;BME280_pressure;Samples;Min_cycle;Max_cycle;Signal;HPM_P1;HPM_P2
2021/03/07 00:00:09;;;;;;;9.80;6.60;;;;;;;-0.84;49.54;97364.56;5032259;28;20056;-74
2021/03/07 00:02:35;;;;;;;11.68;6.53;;;;;;;-0.88;49.26;97360.59;5033257;28;20043;-74
2021/03/07 00:05:02;;;;;;;12.60;7.50;;;;;;;-0.91;49.53;97362.59;5033940;28;20037;-74
2021/03/07 00:07:28;;;;;;;11.43;6.75;;;;;;;-0.94;49.48;97360.28;5033322;28;20374;-75
2021/03/07 00:09:54;;;;;;;11.30;7.30;;;;;;;-0.97;49.61;97356.16;5033420;28;20401;-74
2021/03/07 00:12:20;;;;;;;9.05;5.93;;;;;;;-1.00;49.63;97356.44;5033129;28;20048;-75
2021/03/07 00:14:47;;;;;;;8.30;6.15;;;;;;;-1.02;49.77;97355.72;5033143;28;20045;-75
2021/03/07 00:17:13;;;;;;;9.05;6.22;;;;;;;-1.02;49.79;97359.13;5033176;28;20041;-74
2021/03/07 00:19:40;;;;;;;8.50;5.50;;;;;;;-1.03;49.92;97344.63;5033261;28;20050;-75
2021/03/07 00:22:06;;;;;;;9.38;5.88;;;;;;;-1.06;50.08;97346.63;5032381;28;20057;-74
2021/03/07 00:24:32;;;;;;;8.77;5.70;;;;;;;-1.07;49.78;97338.09;5033088;28;20041;-74
2021/03/07 00:26:59;;;;;;;9.80;5.60;;;;;;;-1.09;49.84;97331.41;5032870;28;20042;-75
2021/03/07 00:29:26;;;;;;;8.30;5.82;;;;;;;-1.10;49.76;97334.94;5033386;28;20482;-74
2021/03/07 00:31:53;;;;;;;8.50;5.20;;;;;;;-1.11;49.80;97336.69;5032544;28;20045;-75
2021/03/07 00:34:19;;;;;;;7.60;5.22;;;;;;;-1.13;49.86;97332.63;5032428;28;20049;-74
2021/03/07 00:36:46;;;;;;;7.00;4.78;;;;;;;-1.14;50.11;97343.84;5032821;28;20049;-75
2021/03/07 00:39:12;;;;;;;9.20;5.97;;;;;;;-1.16;50.14;97338.81;5032787;28;20045;-75
2021/03/07 00:41:41;;;;;;;9.60;5.75;;;;;;;-1.20;49.99;97334.03;5033045;28;20466;-75
2021/03/07 00:44:20;;;;;;;8.65;5.38;;;;;;;-1.26;50.15;97331.00;5033219;28;20041;-75
2021/03/07 00:46:47;;;;;;;11.75;6.57;;;;;;;-1.29;50.25;97331.25;5033472;28;20041;-74
2021/03/07 00:49:18;;;;;;;8.00;5.57;;;;;;;-1.31;50.42;97332.31;5033317;28;20466;-74
2021/03/07 00:51:44;;;;;;;9.07;5.40;;;;;;;-1.33;50.36;97331.63;5033271;28;20030;-74
2021/03/07 00:54:11;;;;;;;9.35;5.95;;;;;;;-1.37;50.45;97336.19;5014665;28;20037;-75
2021/03/07 00:56:37;;;;;;;12.35;6.20;;;;;;;-1.41;50.24;97337.34;5033501;28;20033;-75
2021/03/07 00:59:03;;;;;;;8.35;5.55;;;;;;;-1.43;50.30;97336.66;5036600;28;20041;-75
2021/03/07 01:01:29;;;;;;;8.68;5.45;;;;;;;-1.46;50.33;97327.44;5036598;28;20041;-75
2021/03/07 01:03:55;;;;;;;10.70;6.00;;;;;;;-1.48;50.49;97321.59;5036165;28;20060;-74
2021/03/07 01:06:22;;;;;;;11.55;6.55;;;;;;;-1.47;50.81;97323.25;5034263;28;20412;-75
2021/03/07 01:08:48;;;;;;;13.30;6.57;;;;;;;-1.47;50.71;97322.41;5018693;28;20040;-74
2021/03/07 01:11:14;;;;;;;8.55;6.05;;;;;;;-1.45;50.65;97321.38;5036497;28;20492;-75
2021/03/07 01:13:41;;;;;;;10.90;5.95;;;;;;;-1.44;50.72;97324.75;5036434;28;20473;-74
2021/03/07 01:16:07;;;;;;;9.35;5.78;;;;;;;-1.47;50.69;97328.38;5036130;28;20405;-74
2021/03/07 01:18:33;;;;;;;11.68;6.85;;;;;;;-1.49;50.90;97330.25;5036204;28;20042;-74
2021/03/07 01:21:01;;;;;;;11.25;6.75;;;;;;;-1.52;50.72;97327.91;5036201;28;20044;-75
2021/03/07 01:23:30;;;;;;;10.32;6.93;;;;;;;-1.55;50.81;97315.31;5035966;28;20045;-75
2021/03/07 01:25:56;;;;;;;10.93;7.20;;;;;;;-1.58;50.84;97319.88;5035441;28;20045;-75
2021/03/07 01:28:23;;;;;;;12.23;6.97;;;;;;;-1.62;51.12;97316.69;5036475;28;20049;-74
2021/03/07 01:30:49;;;;;;;12.32;7.32;;;;;;;-1.66;51.29;97315.31;5036033;28;20052;-74
2021/03/07 01:33:15;;;;;;;13.27;7.40;;;;;;;-1.70;51.40;97313.91;5035869;28;20030;-75
2021/03/07 01:35:42;;;;;;;10.85;7.38;;;;;;;-1.72;51.10;97315.78;5036070;28;20482;-75
2021/03/07 01:38:08;;;;;;;15.30;8.45;;;;;;;-1.75;51.61;97306.56;5035717;28;20064;-75
2021/03/07 01:40:40;;;;;;;11.80;8.02;;;;;;;-1.77;52.17;97313.56;5035695;28;20041;-74
2021/03/07 01:43:06;;;;;;;16.73;9.18;;;;;;;-1.80;51.77;97305.31;5034900;28;20481;-74
2021/03/07 01:45:33;;;;;;;16.35;9.23;;;;;;;-1.84;51.89;97302.94;5035725;28;20036;-74
2021/03/07 01:48:02;;;;;;;16.88;8.45;;;;;;;-1.88;51.63;97293.03;5034601;28;20038;-74
2021/03/07 01:50:31;;;;;;;15.90;8.73;;;;;;;-1.89;51.93;97292.22;5034714;28;20045;-75
2021/03/07 01:52:58;;;;;;;14.13;8.35;;;;;;;-1.90;51.88;97289.75;5018174;28;20036;-74
2021/03/07 01:55:31;;;;;;;15.27;9.02;;;;;;;-1.94;51.99;97293.50;5035504;28;20041;-75
2021/03/07 01:57:58;;;;;;;16.60;9.07;;;;;;;-1.98;52.28;97284.41;5035620;28;20401;-75
2021/03/07 02:00:25;;;;;;;13.85;8.60;;;;;;;-2.00;51.90;97281.94;5035738;28;20056;-74
2021/03/07 02:02:51;;;;;;;16.58;8.73;;;;;;;-2.06;52.11;97274.69;5034985;28;20040;-75
2021/03/07 02:05:20;;;;;;;15.50;8.93;;;;;;;-2.09;52.22;97269.81;5035342;28;20042;-75
2021/03/07 02:07:48;;;;;;;15.80;8.18;;;;;;;-2.13;52.26;97258.94;5021465;28;20042;-74
2021/03/07 02:10:22;;;;;;;15.50;8.70;;;;;;;-2.17;53.16;97261.88;5035640;28;20402;-74
2021/03/07 02:12:52;;;;;;;12.75;7.85;;;;;;;-2.19;52.59;97259.41;5035152;28;20033;-74
2021/03/07 02:15:20;;;;;;;11.07;7.78;;;;;;;-2.21;52.70;97251.00;5035399;28;20040;-75
2021/03/07 02:17:47;;;;;;;13.57;7.65;;;;;;;-2.21;52.50;97248.44;5034119;28;20052;-75
2021/03/07 02:20:18;;;;;;;11.85;7.90;;;;;;;-2.21;53.09;97245.06;5035028;28;20034;-74
2021/03/07 02:22:55;;;;;;;11.00;7.30;;;;;;;-2.23;53.61;97236.63;5035366;28;20041;-75
2021/03/07 02:25:21;;;;;;;11.98;8.05;;;;;;;-2.27;52.71;97234.31;5035158;28;20397;-75
2021/03/07 02:27:48;;;;;;;13.05;6.95;;;;;;;-2.29;53.00;97227.63;5035197;28;20033;-74
2021/03/07 02:30:15;;;;;;;13.50;7.90;;;;;;;-2.31;52.95;97230.34;5034786;28;20045;-74
2021/03/07 02:33:19;;;;;;;11.65;7.60;;;;;;;-2.32;53.95;97226.13;5035029;28;20044;-74
2021/03/07 02:35:51;;;;;;;11.63;7.50;;;;;;;-2.34;53.29;97224.63;4982879;28;20413;-74
2021/03/07 02:38:22;;;;;;;12.55;7.32;;;;;;;-2.33;53.16;97219.38;5034559;28;20056;-75
2021/03/07 02:40:57;;;;;;;10.20;6.00;;;;;;;-2.34;54.03;97211.78;5034813;28;20440;-75
2021/03/07 02:43:26;;;;;;;11.57;7.25;;;;;;;-2.32;53.30;97220.19;5034915;28;20045;-74
2021/03/07 02:45:57;;;;;;;12.00;6.80;;;;;;;-2.31;53.49;97206.38;5034612;28;20040;-74
2021/03/07 02:48:26;;;;;;;12.70;7.82;;;;;;;-2.33;53.28;97208.25;5034894;28;20040;-75
2021/03/07 02:50:52;;;;;;;13.77;8.02;;;;;;;-2.34;53.46;97207.44;5034598;28;20045;-75
2021/03/07 02:53:24;;;;;;;14.40;7.75;;;;;;;-2.34;54.00;97210.03;5034240;28;20421;-74
2021/03/07 02:56:03;;;;;;;11.75;7.35;;;;;;;-2.37;54.19;97204.28;5035002;28;20042;-74
2021/03/07 02:58:31;;;;;;;13.75;7.28;;;;;;;-2.40;53.70;97201.97;5034417;28;20041;-74
2021/03/07 03:01:00;;;;;;;12.40;6.05;;;;;;;-2.45;53.75;97202.34;5034542;28;20049;-74
2021/03/07 03:03:31;;;;;;;12.45;6.50;;;;;;;-2.51;53.85;97198.47;5033958;28;20033;-75
2021/03/07 03:05:58;;;;;;;10.35;6.68;;;;;;;-2.56;53.46;97192.03;5034260;28;20053;-75
2021/03/07 03:08:27;;;;;;;10.20;6.80;;;;;;;-2.60;53.70;97199.19;5034314;28;20462;-75
2021/03/07 03:10:55;;;;;;;11.45;7.28;;;;;;;-2.64;53.77;97200.34;5034304;28;20045;-75
2021/03/07 03:13:24;;;;;;;12.57;8.02;;;;;;;-2.67;53.80;97196.28;5034125;28;20068;-74
2021/03/07 03:15:52;;;;;;;13.48;8.48;;;;;;;-2.69;54.03;97198.13;5033918;28;20042;-75
2021/03/07 03:18:21;;;;;;;12.95;7.95;;;;;;;-2.69;53.94;97187.88;5033985;28;20041;-75
2021/03/07 03:20:51;;;;;;;13.13;9.13;;;;;;;-2.73;54.47;97176.19;5033679;28;20048;-75
2021/03/07 03:23:18;;;;;;;12.25;8.48;;;;;;;-2.73;53.94;97181.34;5034064;28;20041;-74
2021/03/07 03:25:48;;;;;;;14.23;8.88;;;;;;;-2.74;54.70;97179.69;5034035;28;20044;-75
2021/03/07 03:28:15;;;;;;;16.52;8.88;;;;;;;-2.76;54.26;97178.97;5032809;28;20045;-75
2021/03/07 03:30:41;;;;;;;14.98;8.32;;;;;;;-2.81;54.47;97172.56;5033828;28;20041;-75
2021/03/07 03:33:07;;;;;;;15.18;8.50;;;;;;;-2.84;54.25;97173.63;5016260;28;20393;-74
2021/03/07 03:35:34;;;;;;;14.00;8.30;;;;;;;-2.88;54.49;97173.06;5033740;28;20037;-75
2021/03/07 03:38:01;;;;;;;17.35;9.23;;;;;;;-2.91;54.73;97170.69;5016291;28;20064;-75
2021/03/07 03:40:29;;;;;;;17.90;9.73;;;;;;;-2.91;54.72;97175.03;5033902;28;20045;-75
2021/03/07 03:42:58;;;;;;;15.95;10.07;;;;;;;-2.91;54.54;97178.41;5033571;28;20030;-75
2021/03/07 03:45:26;;;;;;;18.67;10.35;;;;;;;-2.91;54.96;97177.59;5024591;28;20528;-75
2021/03/07 03:48:01;;;;;;;16.90;9.38;;;;;;;-2.90;55.35;97184.34;5033620;28;20042;-75
2021/03/07 03:50:30;;;;;;;16.85;9.90;;;;;;;-2.89;54.90;97180.84;5033593;28;20044;-75
2021/03/07 03:52:59;;;;;;;17.60;9.90;;;;;;;-2.91;55.00;97177.59;5033643;28;20394;-75
2021/03/07 03:55:28;;;;;;;16.30;9.38;;;;;;;-2.95;54.72;97171.84;5033300;28;20029;-75
2021/03/07 03:58:01;;;;;;;16.55;9.25;;;;;;;-3.01;55.01;97171.50;5033356;28;20033;-75
2021/03/07 04:00:28;;;;;;;15.93;9.82;;;;;;;-3.04;54.97;97174.28;5019619;28;20041;-75
2021/03/07 04:02:57;;;;;;;20.60;9.75;;;;;;;-3.08;55.03;97166.03;5032818;28;20065;-75
2021/03/07 04:05:26;;;;;;;15.52;9.20;;;;;;;-3.10;55.48;97166.13;5033236;28;20390;-74
2021/03/07 04:07:53;;;;;;;17.20;9.25;;;;;;;-3.12;55.28;97156.91;5032484;28;20052;-75
2021/03/07 04:10:22;;;;;;;14.02;9.38;;;;;;;-3.10;55.63;97158.44;5032688;28;20057;-75
2021/03/07 04:12:50;;;;;;;16.80;9.60;;;;;;;-3.08;55.56;97146.31;5032922;28;20048;-75
2021/03/07 04:15:19;;;;;;;16.85;10.10;;;;;;;-3.08;55.78;97150.63;5033173;28;20044;-75
2021/03/07 04:17:48;;;;;;;15.38;9.45;;;;;;;-3.08;56.05;97148.06;5033522;28;20044;-74
2021/03/07 04:20:15;;;;;;;17.60;9.60;;;;;;;-3.07;55.73;97150.53;5032668;28;20504;-75
2021/03/07 04:22:42;;;;;;;16.25;9.52;;;;;;;-3.04;55.55;97152.03;5032896;28;20045;-75
2021/03/07 04:25:10;;;;;;;18.08;10.82;;;;;;;-2.98;55.87;97158.44;5034003;28;20046;-74
2021/03/07 04:27:38;;;;;;;19.40;11.32;;;;;;;-2.94;55.98;97152.13;5033117;28;20041;-76
2021/03/07 04:30:05;;;;;;;18.67;10.50;;;;;;;-2.91;56.27;97151.94;5023195;28;20489;-74
2021/03/07 04:32:33;;;;;;;20.60;10.50;;;;;;;-2.87;56.05;97150.75;5036727;28;20037;-75
2021/03/07 04:35:01;;;;;;;18.17;10.75;;;;;;;-2.84;56.18;97142.81;5037598;28;20041;-75
2021/03/07 04:37:28;;;;;;;18.70;10.57;;;;;;;-2.80;56.40;97153.66;5036842;28;20037;-75
2021/03/07 04:39:55;;;;;;;20.63;11.43;;;;;;;-2.79;56.15;97140.72;5037235;28;20540;-75
2021/03/07 04:42:22;;;;;;;20.65;11.05;;;;;;;-2.80;56.47;97149.34;5037250;28;20044;-75
2021/03/07 04:44:48;;;;;;;18.75;10.35;;;;;;;-2.78;56.39;97147.47;5037145;28;20049;-75
2021/03/07 04:47:15;;;;;;;17.52;10.88;;;;;;;-2.74;56.48;97150.63;5036928;28;20049;-75
2021/03/07 04:49:41;;;;;;;18.65;10.88;;;;;;;-2.71;56.51;97148.66;5036926;28;20037;-75
2021/03/07 04:52:07;;;;;;;14.00;9.38;;;;;;;-2.67;56.76;97138.94;5036696;28;20066;-75
2021/03/07 04:54:33;;;;;;;17.05;10.23;;;;;;;-2.63;56.50;97137.78;5036611;28;20022;-75
2021/03/07 04:57:06;;;;;;;17.73;10.93;;;;;;;-2.60;57.58;97134.16;5036575;28;20042;-75
2021/03/07 04:59:32;;;;;;;20.02;10.65;;;;;;;-2.59;56.66;97123.78;5036873;28;20041;-75
2021/03/07 05:01:59;;;;;;;18.30;10.38;;;;;;;-2.58;56.69;97129.72;5036552;28;20025;-75
2021/03/07 05:04:25;;;;;;;20.98;10.23;;;;;;;-2.56;56.60;97122.72;5037006;28;20041;-75
2021/03/07 05:06:52;;;;;;;19.67;10.43;;;;;;;-2.53;57.02;97122.50;5036483;28;20466;-75
2021/03/07 05:09:18;;;;;;;16.83;9.98;;;;;;;-2.49;56.82;97122.13;5036856;28;20466;-74
2021/03/07 05:11:44;;;;;;;18.63;11.20;;;;;;;-2.48;56.81;97118.63;5036584;28;20041;-75
2021/03/07 05:14:11;;;;;;;19.30;10.80;;;;;;;-2.43;57.13;97125.16;5036623;28;20037;-74
2021/03/07 05:16:37;;;;;;;15.35;9.82;;;;;;;-2.41;56.79;97128.44;5036246;28;20496;-75
2021/03/07 05:19:04;;;;;;;18.52;9.98;;;;;;;-2.38;56.96;97112.78;5035610;28;20070;-74
2021/03/07 05:21:31;;;;;;;16.60;9.40;;;;;;;-2.37;57.05;97115.22;5036215;28;20060;-74
2021/03/07 05:24:00;;;;;;;18.25;10.23;;;;;;;-2.34;56.81;97116.72;5036179;28;20420;-75
2021/03/07 05:26:27;;;;;;;21.35;11.57;;;;;;;-2.36;57.27;97114.28;5036180;28;20038;-75
2021/03/07 05:28:55;;;;;;;19.17;11.02;;;;;;;-2.51;57.17;97105.22;5036136;28;20041;-74
2021/03/07 05:31:22;;;;;;;17.42;10.35;;;;;;;-2.55;57.16;97111.53;5034368;28;20028;-75
2021/03/07 05:33:48;;;;;;;17.60;10.35;;;;;;;-2.60;57.49;97103.34;5035714;28;20053;-74
2021/03/07 05:36:15;;;;;;;19.67;11.77;;;;;;;-2.62;57.61;97097.53;5035644;28;20064;-75
2021/03/07 05:38:42;;;;;;;17.70;11.35;;;;;;;-2.63;57.61;97098.47;5035648;28;20054;-75
2021/03/07 05:41:11;;;;;;;23.83;12.55;;;;;;;-2.60;57.82;97101.63;5018426;28;20050;-74
2021/03/07 05:43:38;;;;;;;17.98;11.30;;;;;;;-2.56;57.74;97099.59;5034938;28;20033;-75
2021/03/07 05:46:04;;;;;;;18.05;11.63;;;;;;;-2.54;58.03;97098.56;5035668;28;20493;-75
2021/03/07 05:48:30;;;;;;;18.13;10.90;;;;;;;-2.51;58.05;97092.38;5034995;28;20041;-75
2021/03/07 05:50:57;;;;;;;18.85;10.85;;;;;;;-2.49;57.91;97090.50;5035789;28;20037;-75
2021/03/07 05:53:24;;;;;;;18.98;10.77;;;;;;;-2.47;58.05;97083.50;5036113;28;20397;-75
2021/03/07 05:55:51;;;;;;;19.30;10.98;;;;;;;-2.46;57.74;97083.38;5035407;28;20042;-76
2021/03/07 05:58:18;;;;;;;20.75;11.43;;;;;;;-2.42;58.02;97075.41;5035683;28;20037;-75
2021/03/07 06:00:44;;;;;;;19.10;11.43;;;;;;;-2.43;58.07;97084.88;5030616;28;20390;-75
2021/03/07 06:03:12;;;;;;;18.67;11.70;;;;;;;-2.42;58.18;97076.22;5035550;28;20409;-75
2021/03/07 06:05:40;;;;;;;17.27;10.85;;;;;;;-2.40;58.32;97079.50;5035762;28;20044;-75
2021/03/07 06:08:06;;;;;;;20.83;11.82;;;;;;;-2.35;58.00;97079.13;5035474;28;20037;-75
2021/03/07 06:10:33;;;;;;;20.80;11.57;;;;;;;-2.32;58.42;97074.56;5035588;28;20045;-75
2021/03/07 06:13:10;;;;;;;19.80;12.52;;;;;;;-2.27;58.76;97077.59;5035308;28;20496;-75
2021/03/07 06:15:38;;;;;;;23.98;12.30;;;;;;;-2.21;58.44;97073.72;5033289;28;20034;-74
2021/03/07 06:18:20;;;;;;;18.50;11.32;;;;;;;-2.16;58.84;97068.19;5034318;28;20040;-75
2021/03/07 06:20:49;;;;;;;17.90;11.45;;;;;;;-2.10;58.16;97071.13;5035540;28;20038;-75
2021/03/07 06:23:15;;;;;;;22.75;12.43;;;;;;;-2.05;58.14;97065.59;5034340;28;20049;-75
2021/03/07 06:25:50;;;;;;;23.25;15.75;;;;;;;-1.97;58.56;97065.81;5034482;28;20050;-75
2021/03/07 06:28:28;;;;;;;25.00;15.77;;;;;;;-1.73;58.45;97068.13;5034921;28;20052;-75
2021/03/07 06:30:55;;;;;;;23.35;15.27;;;;;;;-1.22;58.54;97066.50;5035156;28;20044;-75
2021/03/07 06:33:38;;;;;;;23.80;12.55;;;;;;;-0.57;56.99;97053.28;5026633;28;20046;-76
2021/03/07 06:36:19;;;;;;;20.65;11.85;;;;;;;0.01;56.16;97045.59;5034808;28;20053;-75
2021/03/07 06:38:51;;;;;;;22.17;12.15;;;;;;;0.55;56.70;97048.50;5035196;28;20379;-75
2021/03/07 06:41:23;;;;;;;17.70;11.27;;;;;;;1.12;55.21;97033.75;5035315;28;20048;-75
2021/03/07 06:43:50;;;;;;;15.88;10.20;;;;;;;1.58;55.51;97033.75;5034797;28;20041;-75
2021/03/07 06:46:27;;;;;;;17.85;11.55;;;;;;;1.98;52.55;97020.38;5034698;28;20500;-76
2021/03/07 06:48:53;;;;;;;17.48;10.65;;;;;;;2.36;54.19;97022.75;5034615;28;20040;-75
2021/03/07 06:51:28;;;;;;;16.60;10.15;;;;;;;2.77;51.12;97008.25;5034719;28;20041;-76
2021/03/07 06:53:56;;;;;;;17.15;10.38;;;;;;;3.15;53.26;97015.69;5033642;28;20362;-76
2021/03/07 06:56:51;;;;;;;17.98;11.07;;;;;;;3.52;48.42;96991.16;5025537;28;20385;-75
2021/03/07 06:59:23;;;;;;;13.20;9.48;;;;;;;3.85;51.43;97010.97;5016504;28;20053;-75
2021/03/07 07:01:52;;;;;;;15.68;10.48;;;;;;;4.21;50.80;97021.00;5034194;28;20029;-76
2021/03/07 07:04:19;;;;;;;20.38;11.88;;;;;;;4.50;50.85;97013.69;5034252;28;20038;-75
2021/03/07 07:07:05;;;;;;;17.33;12.00;;;;;;;4.78;46.36;97003.72;5034599;28;20041;-75
2021/03/07 07:09:32;;;;;;;17.50;11.32;;;;;;;5.04;49.63;97024.22;5034008;28;20040;-76
2021/03/07 07:11:59;;;;;;;16.10;10.52;;;;;;;5.25;48.85;97018.50;5034231;28;20045;-75
2021/03/07 07:14:40;;;;;;;16.70;10.25;;;;;;;5.46;45.61;97013.50;5033906;28;20458;-75
2021/03/07 07:17:16;;;;;;;17.63;10.30;;;;;;;5.70;45.03;97011.72;5034336;28;20052;-76
2021/03/07 07:19:44;;;;;;;14.93;10.00;;;;;;;5.91;47.00;97018.88;5034203;28;20041;-75
2021/03/07 07:22:12;;;;;;;16.38;11.02;;;;;;;6.13;47.03;97027.69;5032934;28;20496;-76
2021/03/07 07:24:40;;;;;;;22.13;13.45;;;;;;;6.42;46.26;97021.75;5034698;28;20466;-75
2021/03/07 07:27:06;;;;;;;25.10;14.50;;;;;;;6.58;45.59;97023.41;5034013;28;20498;-76
2021/03/07 07:29:35;;;;;;;24.58;13.88;;;;;;;6.69;45.08;97020.34;5034184;28;20033;-75
2021/03/07 07:32:06;;;;;;;21.67;12.43;;;;;;;6.80;45.07;97020.88;5033461;28;20050;-76
2021/03/07 07:34:56;;;;;;;19.58;13.02;;;;;;;6.83;43.32;97018.75;5033723;28;20044;-76
2021/03/07 07:37:30;;;;;;;16.58;11.20;;;;;;;6.80;42.33;97015.69;5016931;28;20057;-75
2021/03/07 07:39:57;;;;;;;16.10;10.27;;;;;;;6.58;43.55;97018.19;5033774;28;20048;-76
2021/03/07 07:42:29;;;;;;;17.45;11.15;;;;;;;6.45;43.28;97024.00;5033300;28;20049;-76
2021/03/07 07:44:59;;;;;;;13.75;9.85;;;;;;;6.54;42.71;97018.72;5033092;28;20049;-76
2021/03/07 07:47:41;;;;;;;16.05;10.27;;;;;;;6.74;41.33;97014.63;5032543;28;20045;-75
2021/03/07 07:50:27;;;;;;;14.93;10.00;;;;;;;6.93;42.86;97022.88;5009950;28;20048;-76
2021/03/07 07:52:55;;;;;;;14.85;10.07;;;;;;;7.07;42.59;97028.06;5032583;28;20500;-77
2021/03/07 07:55:41;;;;;;;15.32;9.75;;;;;;;7.13;39.91;97015.31;5033326;28;20044;-76
2021/03/07 07:58:08;;;;;;;15.40;10.63;;;;;;;6.99;41.83;97028.19;5033385;28;20042;-76
2021/03/07 08:00:51;;;;;;;14.98;10.23;;;;;;;6.84;40.67;97022.16;5033316;28;20036;-76
2021/03/07 08:03:31;;;;;;;14.45;10.02;;;;;;;6.79;40.25;97019.28;5033195;28;20033;-76
2021/03/07 08:05:59;;;;;;;14.07;10.70;;;;;;;6.72;41.85;97019.19;5033379;28;20466;-75
2021/03/07 08:08:36;;;;;;;13.45;9.98;;;;;;;6.73;40.96;97015.59;5033148;28;20485;-76
2021/03/07 08:11:04;;;;;;;14.60;10.20;;;;;;;6.70;41.61;97013.34;5033284;28;20037;-76
2021/03/07 08:13:33;;;;;;;16.58;10.38;;;;;;;6.66;41.13;97012.09;5033328;28;20044;-76
2021/03/07 08:16:01;;;;;;;18.45;9.85;;;;;;;6.69;41.52;97012.53;5032869;28;20025;-76
2021/03/07 08:18:55;;;;;;;13.05;9.63;;;;;;;6.81;40.97;96999.06;5032175;28;20374;-76
2021/03/07 08:21:25;;;;;;;15.85;10.27;;;;;;;7.03;41.51;96999.94;5032360;28;20037;-76
2021/03/07 08:24:05;;;;;;;15.90;10.32;;;;;;;6.98;40.89;96997.06;5033124;28;20041;-75
2021/03/07 08:26:46;;;;;;;14.32;10.40;;;;;;;7.01;40.43;96997.50;5022520;28;20419;-75
2021/03/07 08:29:38;;;;;;;17.13;12.57;;;;;;;7.02;40.35;96991.31;5023598;28;20050;-77
2021/03/07 08:32:26;;;;;;;21.42;15.45;;;;;;;7.09;39.75;96989.56;5032903;28;20037;-76
2021/03/07 08:34:54;;;;;;;14.48;10.45;;;;;;;7.26;40.57;96991.97;5033173;28;20461;-75
2021/03/07 08:37:21;;;;;;;20.23;15.13;;;;;;;7.38;40.70;96993.13;5033122;28;20061;-76
2021/03/07 08:40:26;;;;;;;16.73;12.70;;;;;;;7.65;39.38;96978.56;5032047;28;20061;-76
2021/03/07 08:42:53;;;;;;;16.45;11.55;;;;;;;7.85;40.38;96989.19;5032788;28;20056;-77
2021/03/07 08:45:20;;;;;;;15.80;10.20;;;;;;;7.83;39.88;96990.38;5032833;28;20383;-76
2021/03/07 08:47:55;;;;;;;18.08;10.68;;;;;;;7.68;39.53;96979.97;5033622;28;20041;-75
2021/03/07 08:50:23;;;;;;;18.35;12.75;;;;;;;7.52;40.07;96986.25;5032972;28;20029;-76
2021/03/07 08:52:50;;;;;;;16.88;12.05;;;;;;;7.09;39.94;96980.94;5032791;28;20034;-75
2021/03/07 08:55:16;;;;;;;17.83;12.23;;;;;;;6.69;40.43;96980.44;5032747;28;20463;-75
2021/03/07 08:57:49;;;;;;;30.95;18.17;;;;;;;6.18;40.78;96988.13;5035862;28;20030;-75
2021/03/07 09:00:18;;;;;;;23.23;14.02;;;;;;;5.70;41.55;96983.09;5033626;28;20038;-75
2021/03/07 09:02:45;;;;;;;56.88;28.65;;;;;;;5.47;41.67;96985.69;5032498;28;20040;-75
2021/03/07 09:05:31;;;;;;;37.08;20.15;;;;;;;5.35;42.60;96987.84;5031969;28;20217;-75
2021/03/07 09:07:59;;;;;;;40.00;22.83;;;;;;;5.26;42.65;96987.09;5032202;28;20049;-76
2021/03/07 09:10:46;;;;;;;22.40;14.30;;;;;;;5.45;44.13;96998.84;5031831;28;20065;-76
2021/03/07 09:13:17;;;;;;;18.85;12.50;;;;;;;5.70;43.24;96986.50;5033134;28;20041;-75
2021/03/07 09:15:56;;;;;;;22.23;13.27;;;;;;;5.95;43.26;96980.34;5014090;28;20037;-76
2021/03/07 09:18:28;;;;;;;20.55;14.68;;;;;;;6.17;43.00;96973.47;5033982;28;20044;-76
2021/03/07 09:21:04;;;;;;;18.67;12.68;;;;;;;5.97;42.75;96968.75;5028371;28;20049;-75
2021/03/07 09:23:38;;;;;;;18.85;12.80;;;;;;;5.81;42.94;96976.66;5036416;28;20029;-76
2021/03/07 09:26:09;;;;;;;23.08;16.98;;;;;;;5.68;43.01;96961.63;5035468;28;20037;-75
2021/03/07 09:28:49;;;;;;;20.15;12.35;;;;;;;5.68;44.07;96969.44;5018511;28;20038;-75
2021/03/07 09:31:20;;;;;;;17.05;12.80;;;;;;;5.77;43.46;96960.59;5036180;28;20033;-75
2021/03/07 09:33:54;;;;;;;21.23;13.75;;;;;;;5.98;43.83;96966.97;5036008;28;20045;-75
2021/03/07 09:36:26;;;;;;;18.95;12.30;;;;;;;6.17;44.33;96968.25;5035360;28;20052;-75
2021/03/07 09:39:09;;;;;;;20.00;13.68;;;;;;;6.33;44.80;96968.13;4996039;28;20055;-75
2021/03/07 09:41:44;;;;;;;16.10;12.30;;;;;;;6.56;44.50;96968.03;4996379;28;20053;-75
2021/03/07 09:44:12;;;;;;;17.45;11.77;;;;;;;6.86;44.20;96957.59;4997186;28;20045;-75
2021/03/07 09:46:43;;;;;;;19.85;13.57;;;;;;;7.13;43.80;96957.94;4996820;28;20033;-75
2021/03/07 09:49:13;;;;;;;18.60;13.75;;;;;;;7.01;43.39;96952.38;4996338;28;20046;-75
2021/03/07 09:51:42;;;;;;;22.85;14.77;;;;;;;6.79;43.51;96947.09;4996325;28;20035;-75
2021/03/07 09:54:14;;;;;;;20.17;13.23;;;;;;;6.67;43.95;96948.53;4995276;28;20065;-75
2021/03/07 09:56:41;;;;;;;19.98;13.35;;;;;;;6.57;43.96;96953.22;4995964;28;20042;-75
2021/03/07 09:59:32;;;;;;;22.20;14.85;;;;;;;6.59;45.28;96948.63;4996238;28;20034;-75
2021/03/07 10:02:00;;;;;;;19.38;13.40;;;;;;;6.82;45.12;96923.25;4996209;28;20586;-75
2021/03/07 10:05:00;;;;;;;20.00;12.93;;;;;;;6.79;44.79;96918.41;4995526;28;20098;-75
2021/03/07 10:07:26;;;;;;;48.38;27.40;;;;;;;6.86;44.78;96915.88;4987363;28;20406;-75
2021/03/07 10:10:11;;;;;;;21.50;14.15;;;;;;;6.94;44.91;96913.19;4993840;28;20050;-75
2021/03/07 10:12:55;;;;;;;43.88;27.23;;;;;;;6.88;44.98;96909.50;4995892;28;20054;-75
2021/03/07 10:15:27;;;;;;;22.73;14.73;;;;;;;6.89;44.91;96905.13;4996020;28;20030;-75
2021/03/07 10:17:55;;;;;;;20.88;13.48;;;;;;;6.93;44.94;96902.91;4986936;28;20653;-75
2021/03/07 10:20:21;;;;;;;26.00;14.93;;;;;;;7.16;45.30;96902.78;4996130;28;20486;-75
2021/03/07 10:22:48;;;;;;;21.40;14.45;;;;;;;7.32;44.92;96902.53;4995491;28;20482;-75
2021/03/07 10:25:33;;;;;;;19.70;13.70;;;;;;;7.50;44.60;96894.31;4995190;28;20053;-75
2021/03/07 10:28:04;;;;;;;19.73;14.38;;;;;;;7.70;44.58;96889.22;4995932;28;20034;-76
2021/03/07 10:30:38;;;;;;;19.27;13.75;;;;;;;7.82;44.68;96894.75;5003836;28;20049;-75
2021/03/07 10:33:10;;;;;;;21.73;14.07;;;;;;;7.95;43.79;96891.44;4995458;28;20034;-75
2021/03/07 10:35:38;;;;;;;17.88;13.35;;;;;;;8.13;44.68;96895.19;4995845;28;20061;-75
2021/03/07 10:38:04;;;;;;;18.05;13.23;;;;;;;8.34;44.51;96890.91;5022917;28;20390;-76
2021/03/07 10:40:35;;;;;;;18.92;13.50;;;;;;;8.54;44.27;96891.03;5035164;28;20042;-75
2021/03/07 10:43:03;;;;;;;19.13;13.10;;;;;;;8.77;44.17;96882.88;5034563;28;20113;-75
2021/03/07 10:45:30;;;;;;;17.27;12.73;;;;;;;8.96;43.80;96886.56;5034881;28;20037;-75
2021/03/07 10:48:11;;;;;;;20.05;13.45;;;;;;;8.94;42.42;96880.72;5033268;28;20041;-75
2021/03/07 10:50:41;;;;;;;20.02;13.80;;;;;;;8.98;43.27;96881.13;5034414;28;20034;-75
2021/03/07 10:53:08;;;;;;;18.90;13.88;;;;;;;9.07;43.57;96882.56;5035022;28;20029;-75
2021/03/07 10:55:34;;;;;;;16.45;12.43;;;;;;;9.18;43.28;96881.22;5034291;28;20040;-75
2021/03/07 10:58:02;;;;;;;17.95;13.43;;;;;;;9.19;43.00;96873.13;5034576;28;20041;-75
2021/03/07 11:00:28;;;;;;;19.85;13.63;;;;;;;9.25;43.00;96877.59;5034158;28;20033;-75
2021/03/07 11:02:55;;;;;;;17.38;13.07;;;;;;;9.38;42.88;96878.63;5034803;28;20041;-75
2021/03/07 11:05:22;;;;;;;18.75;14.02;;;;;;;9.48;42.86;96882.44;5034513;28;20042;-75
2021/03/07 11:07:49;;;;;;;17.75;12.73;;;;;;;9.56;42.50;96876.22;5033909;28;20041;-76
2021/03/07 11:10:18;;;;;;;18.15;13.27;;;;;;;9.59;42.06;96873.19;5034202;28;20044;-75
2021/03/07 11:12:44;;;;;;;18.98;12.82;;;;;;;9.75;42.32;96872.78;5034086;28;20040;-75
2021/03/07 11:15:11;;;;;;;20.23;14.00;;;;;;;10.01;42.07;96876.41;5033869;28;20038;-75
2021/03/07 11:17:38;;;;;;;19.63;13.07;;;;;;;10.21;41.74;96859.88;5034007;28;20065;-76
2021/03/07 11:20:07;;;;;;;17.33;12.52;;;;;;;10.38;41.21;96870.75;5034063;28;20041;-75
2021/03/07 11:22:33;;;;;;;19.17;13.18;;;;;;;10.56;41.05;96865.63;5034262;28;20037;-75
2021/03/07 11:25:00;;;;;;;16.83;12.35;;;;;;;10.66;40.66;96863.38;5033927;28;20050;-75
2021/03/07 11:27:27;;;;;;;18.42;12.80;;;;;;;10.73;40.31;96858.91;5024016;28;20038;-75
2021/03/07 11:29:53;;;;;;;16.67;12.23;;;;;;;10.71;39.57;96857.53;5033630;28;20037;-75
2021/03/07 11:32:19;;;;;;;15.70;12.13;;;;;;;10.76;39.82;96858.50;5033527;28;20042;-75
2021/03/07 11:34:46;;;;;;;16.45;12.07;;;;;;;10.90;39.43;96861.06;5033974;28;20041;-75
2021/03/07 11:37:12;;;;;;;17.17;12.43;;;;;;;10.96;39.04;96857.56;5016141;28;20080;-75